Time;durP1;ratioP1;P1;durP2;ratioP2;P2;SDS_P1;SDS_P2;PMS_P1;PMS_P2;Temp;Humidity;BMP_temperature;BMP_pressure;BME280_temperature;BME280_humidity;BME280_pressure;Samples;Min_cycle;Max_cycle;Signal;HPM_P1;HPM_P2
2024/01/29 00:01:49;;;;;;;9.38;4.80;;;;;;;;;;5002949;28;92417;-73
2024/01/29 00:04:15;;;;;;;9.32;5.18;;;;;;;;;;5003720;28;93414;-72
2024/01/29 00:06:42;;;;;;;11.38;5.32;;;;;;;;;;5002898;28;93940;-72
2024/01/29 00:09:08;;;;;;;8.55;4.85;;;;;;;;;;5003288;28;93431;-72
2024/01/29 00:11:35;;;;;;;13.65;5.80;;;;;;;;;;5002135;28;93260;-72
2024/01/29 00:14:01;;;;;;;8.55;5.10;;;;;;;;;;4998116;28;92316;-72
2024/01/29 00:16:28;;;;;;;9.00;4.93;;;;;;;;;;4998276;28;95137;-72
2024/01/29 00:18:54;;;;;;;8.45;5.57;;;;;;;;;;4999541;28;93501;-72
2024/01/29 00:21:20;;;;;;;8.30;5.15;;;;;;;;;;5000709;28;92536;-72
2024/01/29 00:23:47;;;;;;;9.27;5.50;;;;;;;;;;5002974;28;93295;-72
2024/01/29 00:26:13;;;;;;;8.52;5.30;;;;;;;;;;4997964;28;94366;-72
2024/01/29 00:28:40;;;;;;;7.80;5.32;;;;;;;;;;5004558;28;92532;-73
2024/01/29 00:31:07;;;;;;;13.90;5.50;;;;;;;;;;5002239;28;92802;-72
2024/01/29 00:33:35;;;;;;;16.40;6.50;;;;;;;;;;5005397;28;91763;-73
2024/01/29 00:36:01;;;;;;;10.95;5.20;;;;;;;;;;5000276;28;92701;-72
2024/01/29 00:38:28;;;;;;;5.97;4.82;;;;;;;;;;5002061;28;93687;-73
2024/01/29 00:40:54;;;;;;;8.75;4.95;;;;;;;;;;4998162;28;94947;-72
2024/01/29 00:43:21;;;;;;;9.63;4.75;;;;;;;;;;4997761;28;95548;-72
2024/01/29 00:45:47;;;;;;;8.75;5.13;;;;;;;;;;5003670;28;92476;-72
2024/01/29 00:48:14;;;;;;;14.57;5.50;;;;;;;;;;4996014;28;92533;-72
2024/01/29 00:50:40;;;;;;;9.25;4.82;;;;;;;;;;5003650;28;92959;-73
2024/01/29 00:53:07;;;;;;;11.05;5.63;;;;;;;;;;4994045;28;94732;-72
2024/01/29 00:55:33;;;;;;;10.70;5.65;;;;;;;;;;4999889;28;93151;-72
2024/01/29 00:57:59;;;;;;;11.52;5.47;;;;;;;;;;5003523;28;93155;-72
2024/01/29 01:00:26;;;;;;;15.40;5.68;;;;;;;;;;4998684;28;92461;-72
2024/01/29 01:02:53;;;;;;;8.70;5.43;;;;;;;;;;4999575;28;93269;-72
2024/01/29 01:05:20;;;;;;;9.38;5.60;;;;;;;;;;5000664;28;94969;-72
2024/01/29 01:07:46;;;;;;;10.35;5.70;;;;;;;;;;4996044;28;92790;-72
2024/01/29 01:10:13;;;;;;;9.05;5.10;;;;;;;;;;5003405;28;93207;-72
2024/01/29 01:12:39;;;;;;;9.23;5.35;;;;;;;;;;5003492;28;93396;-72
2024/01/29 01:15:06;;;;;;;9.73;5.20;;;;;;;;;;4996271;28;93144;-72
2024/01/29 01:17:32;;;;;;;10.50;5.85;;;;;;;;;;4995864;28;93450;-72
2024/01/29 01:19:58;;;;;;;9.10;5.40;;;;;;;;;;4999345;28;92882;-72
2024/01/29 01:22:25;;;;;;;9.35;5.80;;;;;;;;;;5000794;28;93354;-72
2024/01/29 01:24:51;;;;;;;9.48;5.60;;;;;;;;;;4997981;28;93342;-72
2024/01/29 01:27:18;;;;;;;10.05;6.00;;;;;;;;;;5004579;28;92893;-72
2024/01/29 01:29:44;;;;;;;9.38;5.60;;;;;;;;;;5001898;28;94832;-72
2024/01/29 01:32:11;;;;;;;11.63;5.90;;;;;;;;;;5000911;28;93519;-72
2024/01/29 01:34:37;;;;;;;10.45;5.43;;;;;;;;;;5005588;28;92475;-72
2024/01/29 01:37:04;;;;;;;12.38;5.80;;;;;;;;;;5003289;28;93400;-72
2024/01/29 01:39:30;;;;;;;11.13;5.80;;;;;;;;;;5001531;28;92605;-72
2024/01/29 01:41:57;;;;;;;10.07;5.97;;;;;;;;;;4997318;28;93160;-73
2024/01/29 01:44:23;;;;;;;16.60;5.82;;;;;;;;;;4998993;28;96243;-72
2024/01/29 01:46:50;;;;;;;10.80;5.93;;;;;;;;;;5002854;28;91797;-72
2024/01/29 01:49:17;;;;;;;11.02;6.10;;;;;;;;;;5000441;28;92755;-72
2024/01/29 01:51:44;;;;;;;9.93;5.93;;;;;;;;;;4999045;28;93423;-72
2024/01/29 01:54:11;;;;;;;9.35;6.03;;;;;;;;;;5002461;28;94971;-72
2024/01/29 01:56:38;;;;;;;10.95;6.18;;;;;;;;;;5001208;28;93724;-72
2024/01/29 01:59:07;;;;;;;9.20;5.88;;;;;;;;;;4993259;28;92480;-72
2024/01/29 02:01:33;;;;;;;9.80;6.18;;;;;;;;;;5002458;28;93032;-72
2024/01/29 02:04:00;;;;;;;9.60;6.13;;;;;;;;;;5001563;28;93430;-72
2024/01/29 02:06:26;;;;;;;12.93;6.35;;;;;;;;;;5000943;28;92461;-68
2024/01/29 02:08:53;;;;;;;9.68;6.22;;;;;;;;;;5005062;28;93458;-68
2024/01/29 02:11:20;;;;;;;14.00;6.28;;;;;;;;;;5001711;28;92706;-69
2024/01/29 02:13:46;;;;;;;10.25;6.15;;;;;;;;;;5000979;28;92682;-68
2024/01/29 02:16:12;;;;;;;10.15;6.18;;;;;;;;;;5006029;28;93811;-68
2024/01/29 02:18:39;;;;;;;12.05;5.95;;;;;;;;;;5000565;28;94839;-69
2024/01/29 02:21:06;;;;;;;10.20;5.65;;;;;;;;;;5002025;28;95565;-68
2024/01/29 02:23:32;;;;;;;16.30;6.53;;;;;;;;;;5002662;28;94297;-69
2024/01/29 02:25:59;;;;;;;11.13;6.53;;;;;;;;;;5001650;28;92692;-68
2024/01/29 02:28:27;;;;;;;16.17;5.95;;;;;;;;;;5036324;27;92624;-68
2024/01/29 02:30:53;;;;;;;10.88;6.07;;;;;;;;;;5003145;28;92528;-68
2024/01/29 02:33:20;;;;;;;15.25;5.80;;;;;;;;;;5001553;28;92604;-68
2024/01/29 02:35:47;;;;;;;11.25;6.18;;;;;;;;;;5000813;28;93536;-69
2024/01/29 02:38:13;;;;;;;16.50;7.15;;;;;;;;;;5007128;28;93419;-68
2024/01/29 02:40:39;;;;;;;11.15;6.65;;;;;;;;;;4998838;28;93151;-68
2024/01/29 02:43:06;;;;;;;10.57;5.90;;;;;;;;;;5032246;27;96190;-70
2024/01/29 02:45:32;;;;;;;10.32;6.25;;;;;;;;;;5005084;28;93547;-68
2024/01/29 02:47:59;;;;;;;12.90;6.30;;;;;;;;;;5001993;28;93523;-68
2024/01/29 02:50:29;;;;;;;8.90;5.70;;;;;;;;;;5003799;28;93622;-68
2024/01/29 02:52:56;;;;;;;12.95;6.45;;;;;;;;;;4993289;28;95146;-68
2024/01/29 02:55:23;;;;;;;14.68;6.03;;;;;;;;;;5004435;28;93207;-68
2024/01/29 02:57:49;;;;;;;12.45;6.15;;;;;;;;;;5001038;28;93482;-69
2024/01/29 03:00:16;;;;;;;12.48;6.72;;;;;;;;;;5007972;28;91839;-69
2024/01/29 03:02:42;;;;;;;10.27;6.05;;;;;;;;;;4999423;28;93776;-69
2024/01/29 03:05:09;;;;;;;10.77;5.93;;;;;;;;;;5006265;28;92465;-68
2024/01/29 03:07:35;;;;;;;10.02;6.30;;;;;;;;;;5002552;28;96297;-69
2024/01/29 03:10:02;;;;;;;12.63;7.15;;;;;;;;;;4997845;28;94572;-68
2024/01/29 03:12:28;;;;;;;11.52;7.35;;;;;;;;;;5002706;28;92731;-68
2024/01/29 03:14:54;;;;;;;12.00;6.85;;;;;;;;;;5001531;28;93115;-68
2024/01/29 03:17:21;;;;;;;10.75;6.30;;;;;;;;;;4994048;28;93776;-68
2024/01/29 03:19:47;;;;;;;17.83;7.20;;;;;;;;;;4999057;28;92654;-68
2024/01/29 03:22:14;;;;;;;13.52;6.53;;;;;;;;;;5002593;28;94126;-68
2024/01/29 03:24:40;;;;;;;10.55;6.20;;;;;;;;;;5003110;28;91664;-68
2024/01/29 03:27:06;;;;;;;10.27;6.10;;;;;;;;;;5005839;28;93362;-68
2024/01/29 03:29:33;;;;;;;9.52;5.88;;;;;;;;;;5006066;28;93573;-68
2024/01/29 03:31:59;;;;;;;15.85;6.47;;;;;;;;;;5031690;27;94838;-68
2024/01/29 03:34:26;;;;;;;11.68;6.55;;;;;;;;;;4999553;28;95655;-68
2024/01/29 03:36:53;;;;;;;11.63;7.15;;;;;;;;;;5001243;28;92587;-68
2024/01/29 03:39:19;;;;;;;12.98;6.57;;;;;;;;;;4998973;28;92681;-68
2024/01/29 03:41:46;;;;;;;15.02;7.05;;;;;;;;;;5002366;28;93141;-69
2024/01/29 03:44:14;;;;;;;11.60;6.88;;;;;;;;;;5005166;28;93769;-68
2024/01/29 03:46:40;;;;;;;14.10;6.95;;;;;;;;;;4993324;28;93887;-68
2024/01/29 03:49:06;;;;;;;12.45;6.45;;;;;;;;;;5002201;28;92630;-68
2024/01/29 03:51:33;;;;;;;10.40;6.45;;;;;;;;;;4997647;28;95489;-68
2024/01/29 03:54:00;;;;;;;10.77;6.47;;;;;;;;;;4999366;28;93028;-68
2024/01/29 03:56:26;;;;;;;9.90;6.47;;;;;;;;;;4999318;28;96615;-69
2024/01/29 03:58:52;;;;;;;9.65;6.32;;;;;;;;;;5002826;28;92762;-68
2024/01/29 04:01:26;;;;;;;12.35;6.38;;;;;;;;;;5003978;28;93620;-68
2024/01/29 04:03:53;;;;;;;10.13;6.32;;;;;;;;;;5007052;28;92638;-68
2024/01/29 04:06:20;;;;;;;13.13;6.47;;;;;;;;;;4998210;28;93153;-68
2024/01/29 04:08:46;;;;;;;15.55;6.28;;;;;;;;;;5000470;28;93901;-68
2024/01/29 04:11:12;;;;;;;10.80;6.57;;;;;;;;;;5001650;28;92683;-68
2024/01/29 04:13:39;;;;;;;16.67;6.85;;;;;;;;;;4997185;28;92215;-68
2024/01/29 04:16:08;;;;;;;10.35;6.03;;;;;;;;;;4997988;28;93735;-68
2024/01/29 04:18:35;;;;;;;13.77;6.45;;;;;;;;;;5001881;28;92561;-68
2024/01/29 04:21:02;;;;;;;11.57;7.00;;;;;;;;;;5002590;28;95019;-69
2024/01/29 04:23:29;;;;;;;11.73;6.45;;;;;;;;;;5001928;28;93439;-68
2024/01/29 04:25:55;;;;;;;11.40;6.25;;;;;;;;;;5005064;28;92611;-69
2024/01/29 04:28:21;;;;;;;9.30;6.40;;;;;;;;;;5000794;28;93603;-68
2024/01/29 04:30:48;;;;;;;11.50;6.25;;;;;;;;;;4999207;28;92505;-68
2024/01/29 04:33:14;;;;;;;13.65;6.97;;;;;;;;;;5000389;28;93574;-68
2024/01/29 04:35:41;;;;;;;13.80;6.47;;;;;;;;;;5003497;28;93002;-68
2024/01/29 04:38:07;;;;;;;18.05;6.82;;;;;;;;;;5000347;28;92508;-68
2024/01/29 04:40:39;;;;;;;10.73;6.63;;;;;;;;;;5000532;28;92693;-68
2024/01/29 04:43:05;;;;;;;12.57;7.03;;;;;;;;;;5001007;28;97677;-68
2024/01/29 04:45:32;;;;;;;12.63;6.43;;;;;;;;;;5033902;27;95003;-69
2024/01/29 04:47:58;;;;;;;9.48;6.50;;;;;;;;;;5005040;28;96547;-69
2024/01/29 04:50:24;;;;;;;10.45;6.47;;;;;;;;;;5001933;28;92690;-68
2024/01/29 04:52:51;;;;;;;14.90;6.93;;;;;;;;;;4997720;28;93469;-69
2024/01/29 04:55:17;;;;;;;9.95;6.45;;;;;;;;;;4996313;28;93446;-69
2024/01/29 04:57:44;;;;;;;12.75;6.80;;;;;;;;;;5002243;28;92470;-69
2024/01/29 05:00:10;;;;;;;15.38;6.60;;;;;;;;;;5000363;28;93500;-68
2024/01/29 05:02:37;;;;;;;12.50;6.68;;;;;;;;;;4998454;28;91815;-68
2024/01/29 05:05:04;;;;;;;9.88;6.03;;;;;;;;;;4998003;28;92549;-68
2024/01/29 05:07:30;;;;;;;10.48;6.50;;;;;;;;;;4999979;28;93132;-68
2024/01/29 05:09:56;;;;;;;11.90;6.70;;;;;;;;;;5001505;28;95812;-68
2024/01/29 05:12:23;;;;;;;14.93;7.38;;;;;;;;;;5003076;28;95450;-68
2024/01/29 05:14:49;;;;;;;15.32;7.05;;;;;;;;;;5002627;28;93387;-68
2024/01/29 05:17:16;;;;;;;10.38;6.63;;;;;;;;;;5001155;28;95151;-68
2024/01/29 05:19:45;;;;;;;11.77;6.78;;;;;;;;;;4997387;28;93803;-68
2024/01/29 05:22:12;;;;;;;10.30;6.30;;;;;;;;;;4995478;28;93823;-68
2024/01/29 05:24:39;;;;;;;16.70;6.88;;;;;;;;;;4999979;28;92462;-68
2024/01/29 05:27:05;;;;;;;11.32;7.05;;;;;;;;;;4998541;28;93714;-68
2024/01/29 05:29:31;;;;;;;9.77;6.63;;;;;;;;;;5002392;28;93727;-68
2024/01/29 05:31:58;;;;;;;10.52;6.80;;;;;;;;;;5004096;28;92714;-68
2024/01/29 05:34:25;;;;;;;13.85;6.45;;;;;;;;;;4998584;28;96063;-68
2024/01/29 05:36:51;;;;;;;22.23;7.32;;;;;;;;;;4998147;28;92545;-68
2024/01/29 05:39:18;;;;;;;15.02;6.65;;;;;;;;;;5002409;28;93103;-68
2024/01/29 05:41:44;;;;;;;12.32;6.43;;;;;;;;;;5003410;28;93762;-68
2024/01/29 05:44:11;;;;;;;10.15;6.40;;;;;;;;;;5003240;28;92601;-68
2024/01/29 05:46:37;;;;;;;18.20;6.85;;;;;;;;;;5003898;28;93168;-68
2024/01/29 05:49:04;;;;;;;10.45;6.47;;;;;;;;;;5002753;28;93332;-68
2024/01/29 05:51:30;;;;;;;13.50;6.57;;;;;;;;;;5003452;28;91722;-68
2024/01/29 05:53:57;;;;;;;11.77;6.35;;;;;;;;;;5008073;28;92784;-68
2024/01/29 05:56:23;;;;;;;13.93;6.93;;;;;;;;;;5005048;28;92998;-68
2024/01/29 05:58:49;;;;;;;10.02;6.85;;;;;;;;;;5001065;28;94965;-70
2024/01/29 06:01:16;;;;;;;13.63;6.88;;;;;;;;;;5000570;28;93380;-69
2024/01/29 06:03:42;;;;;;;13.70;6.65;;;;;;;;;;5002714;28;92605;-69
2024/01/29 06:06:08;;;;;;;11.68;7.28;;;;;;;;;;4998662;28;92928;-68
2024/01/29 06:08:35;;;;;;;12.95;7.20;;;;;;;;;;5006610;28;93404;-70
2024/01/29 06:11:01;;;;;;;16.40;7.50;;;;;;;;;;5001657;28;92675;-69
2024/01/29 06:13:28;;;;;;;10.27;7.05;;;;;;;;;;5012475;28;92445;-69
2024/01/29 06:15:54;;;;;;;14.40;7.25;;;;;;;;;;5006379;28;91781;-69
2024/01/29 06:18:21;;;;;;;13.57;6.95;;;;;;;;;;4999338;28;92668;-69
2024/01/29 06:20:49;;;;;;;11.85;7.47;;;;;;;;;;5003848;28;96076;-68
2024/01/29 06:23:15;;;;;;;9.85;6.78;;;;;;;;;;4997071;28;94826;-68
2024/01/29 06:25:42;;;;;;;10.57;6.93;;;;;;;;;;5006959;28;95541;-68
2024/01/29 06:28:08;;;;;;;13.50;7.35;;;;;;;;;;5003863;28;94610;-69
2024/01/29 06:30:35;;;;;;;12.88;7.18;;;;;;;;;;5004357;28;92510;-69
2024/01/29 06:33:01;;;;;;;17.85;7.60;;;;;;;;;;5001505;28;93401;-69
2024/01/29 06:35:28;;;;;;;12.65;7.38;;;;;;;;;;5006218;28;93439;-68
2024/01/29 06:37:54;;;;;;;12.95;7.40;;;;;;;;;;5003640;28;93185;-69
2024/01/29 06:40:26;;;;;;;10.88;6.88;;;;;;;;;;5002025;28;92702;-70
2024/01/29 06:42:54;;;;;;;15.00;7.78;;;;;;;;;;4995631;28;92455;-71
2024/01/29 06:45:21;;;;;;;16.15;8.13;;;;;;;;;;4997384;28;93018;-70
2024/01/29 06:47:47;;;;;;;11.80;8.35;;;;;;;;;;4999729;28;95837;-75
2024/01/29 06:50:14;;;;;;;12.55;6.68;;;;;;;;;;5000265;28;92602;-76
2024/01/29 06:52:40;;;;;;;9.38;6.70;;;;;;;;;;5003997;28;93103;-74
2024/01/29 06:55:07;;;;;;;14.80;7.25;;;;;;;;;;5000236;28;92416;-74
2024/01/29 06:57:33;;;;;;;13.15;7.20;;;;;;;;;;5003294;28;92676;-74
2024/01/29 07:00:00;;;;;;;13.10;7.05;;;;;;;;;;5004725;28;93522;-74
2024/01/29 07:02:26;;;;;;;13.02;7.55;;;;;;;;;;5001554;28;92502;-77
2024/01/29 07:04:54;;;;;;;15.40;7.80;;;;;;;;;;5001663;28;93499;-76
2024/01/29 07:07:20;;;;;;;11.40;7.05;;;;;;;;;;4996441;28;93420;-76
2024/01/29 07:09:47;;;;;;;10.95;6.18;;;;;;;;;;4994394;28;92557;-76
2024/01/29 07:12:15;;;;;;;11.35;6.93;;;;;;;;;;5003860;28;94849;-76
2024/01/29 07:14:41;;;;;;;10.68;6.85;;;;;;;;;;5003000;28;93887;-76
2024/01/29 07:17:08;;;;;;;10.80;7.18;;;;;;;;;;5002693;28;92748;-76
2024/01/29 07:19:34;;;;;;;12.85;8.13;;;;;;;;;;5007271;28;92430;-75
2024/01/29 07:22:08;;;;;;;11.77;8.10;;;;;;;;;;5004870;28;92986;-75
2024/01/29 07:24:35;;;;;;;14.38;7.95;;;;;;;;;;5001665;28;93491;-75
2024/01/29 07:27:01;;;;;;;12.93;7.90;;;;;;;;;;5002439;28;93489;-76
2024/01/29 07:29:29;;;;;;;16.85;8.48;;;;;;;;;;5003754;28;91782;-76
2024/01/29 07:31:56;;;;;;;19.55;9.25;;;;;;;;;;5004333;28;92455;-76
2024/01/29 07:34:23;;;;;;;12.43;7.70;;;;;;;;;;4998979;28;94569;-76
2024/01/29 07:36:49;;;;;;;12.52;8.15;;;;;;;;;;5000498;28;95110;-76
2024/01/29 07:39:16;;;;;;;18.75;7.47;;;;;;;;;;4999366;28;95611;-75
2024/01/29 07:41:43;;;;;;;13.55;7.95;;;;;;;;;;5005540;28;94180;-76
2024/01/29 07:44:09;;;;;;;20.55;8.20;;;;;;;;;;5004213;28;93162;-76
2024/01/29 07:46:35;;;;;;;11.25;6.90;;;;;;;;;;5000583;28;93445;-76
2024/01/29 07:49:03;;;;;;;15.13;7.63;;;;;;;;;;5000502;28;92441;-76
2024/01/29 07:51:30;;;;;;;11.82;8.27;;;;;;;;;;5004093;28;94333;-75
2024/01/29 07:53:56;;;;;;;15.75;8.95;;;;;;;;;;5003097;28;93858;-76
2024/01/29 07:56:23;;;;;;;14.63;7.93;;;;;;;;;;5006443;28;92713;-76
2024/01/29 07:58:49;;;;;;;10.60;7.07;;;;;;;;;;5002196;28;93611;-76
2024/01/29 08:01:16;;;;;;;11.15;6.85;;;;;;;;;;4998860;28;95852;-76
2024/01/29 08:03:43;;;;;;;12.43;6.85;;;;;;;;;;5008120;28;92514;-76
2024/01/29 08:06:11;;;;;;;14.77;7.28;;;;;;;;;;5002427;28;93994;-76
2024/01/29 08:08:37;;;;;;;14.98;6.95;;;;;;;;;;5006591;28;92426;-76
2024/01/29 08:11:04;;;;;;;12.35;6.55;;;;;;;;;;5003553;28;93118;-76
2024/01/29 08:13:30;;;;;;;15.52;7.28;;;;;;;;;;5000750;28;93759;-76
2024/01/29 08:15:56;;;;;;;15.90;7.30;;;;;;;;;;5002242;28;92709;-76
2024/01/29 08:18:26;;;;;;;12.18;7.30;;;;;;;;;;5001386;28;91847;-76
2024/01/29 08:20:52;;;;;;;17.50;7.32;;;;;;;;;;4999065;28;93702;-76
2024/01/29 08:23:19;;;;;;;10.25;7.00;;;;;;;;;;5000768;28;92487;-76
2024/01/29 08:25:45;;;;;;;13.88;7.47;;;;;;;;;;5002821;28;95826;-76
2024/01/29 08:28:12;;;;;;;14.43;6.88;;;;;;;;;;5001850;28;92458;-76
2024/01/29 08:30:38;;;;;;;9.13;6.38;;;;;;;;;;5001623;28;93261;-76
2024/01/29 08:33:04;;;;;;;14.95;6.38;;;;;;;;;;4997670;28;93499;-76
2024/01/29 08:35:31;;;;;;;12.75;6.80;;;;;;;;;;5000759;28;92678;-76
2024/01/29 08:37:57;;;;;;;13.98;6.78;;;;;;;;;;5003240;28;93126;-76
2024/01/29 08:40:24;;;;;;;16.73;7.20;;;;;;;;;;5001480;28;93801;-76
2024/01/29 08:42:50;;;;;;;10.68;6.88;;;;;;;;;;5000577;28;91906;-76
2024/01/29 08:45:17;;;;;;;15.95;6.82;;;;;;;;;;5004073;28;92737;-76
2024/01/29 08:47:43;;;;;;;14.13;6.97;;;;;;;;;;5003214;28;92970;-76
2024/01/29 08:50:09;;;;;;;13.68;7.07;;;;;;;;;;5000123;28;95099;-76
2024/01/29 08:52:36;;;;;;;13.93;7.35;;;;;;;;;;5000877;28;93608;-76
2024/01/29 08:55:03;;;;;;;10.52;7.10;;;;;;;;;;5002168;28;92543;-76
2024/01/29 08:57:30;;;;;;;12.05;6.68;;;;;;;;;;5003702;28;93077;-76
2024/01/29 08:59:56;;;;;;;9.38;6.38;;;;;;;;;;5005374;28;93737;-75
2024/01/29 09:02:27;;;;;;;12.57;7.50;;;;;;;;;;5000865;28;92448;-76
2024/01/29 09:04:53;;;;;;;9.57;6.63;;;;;;;;;;5004944;28;93493;-76
2024/01/29 09:07:23;;;;;;;11.65;6.10;;;;;;;;;;5002473;28;92681;-76
2024/01/29 09:09:49;;;;;;;9.55;6.10;;;;;;;;;;4999684;28;94809;-73
2024/01/29 09:12:15;;;;;;;11.13;6.53;;;;;;;;;;5003675;28;93575;-72
2024/01/29 09:14:42;;;;;;;8.82;6.13;;;;;;;;;;4999442;28;94791;-73
2024/01/29 09:17:09;;;;;;;10.70;6.45;;;;;;;;;;4999332;28;95466;-73
2024/01/29 09:19:35;;;;;;;12.43;6.28;;;;;;;;;;5002787;28;93203;-72
2024/01/29 09:22:01;;;;;;;11.27;6.35;;;;;;;;;;5000278;28;92727;-72
2024/01/29 09:24:28;;;;;;;8.02;5.70;;;;;;;;;;5003075;28;93144;-73
2024/01/29 09:26:57;;;;;;;9.75;5.93;;;;;;;;;;4999065;28;93711;-72
2024/01/29 09:29:23;;;;;;;10.75;5.63;;;;;;;;;;5001106;28;92487;-73
2024/01/29 09:31:50;;;;;;;8.13;6.13;;;;;;;;;;4995018;28;95878;-72
2024/01/29 09:34:17;;;;;;;7.85;5.53;;;;;;;;;;5000424;28;92533;-72
2024/01/29 09:36:45;;;;;;;9.80;5.50;;;;;;;;;;5000621;28;93323;-72
2024/01/29 09:39:11;;;;;;;10.80;6.10;;;;;;;;;;4998816;28;95800;-73
2024/01/29 09:41:42;;;;;;;12.23;5.80;;;;;;;;;;5002109;28;92458;-72
2024/01/29 09:44:09;;;;;;;9.63;6.20;;;;;;;;;;4998607;28;93498;-72
2024/01/29 09:46:39;;;;;;;10.10;5.80;;;;;;;;;;5004272;28;93637;-72
2024/01/29 09:49:06;;;;;;;8.15;5.75;;;;;;;;;;5002624;28;92446;-72
2024/01/29 09:51:33;;;;;;;7.90;5.90;;;;;;;;;;5004244;28;93553;-72
2024/01/29 09:54:01;;;;;;;8.75;6.13;;;;;;;;;;5001017;28;92492;-73
2024/01/29 09:56:31;;;;;;;12.93;6.28;;;;;;;;;;5001015;28;93111;-72
2024/01/29 09:58:57;;;;;;;15.10;6.32;;;;;;;;;;4996935;28;93486;-73
2024/01/29 10:01:24;;;;;;;9.88;5.97;;;;;;;;;;5003966;28;92682;-73
2024/01/29 10:03:51;;;;;;;11.32;6.70;;;;;;;;;;4998836;28;96300;-72
2024/01/29 10:06:17;;;;;;;10.52;6.47;;;;;;;;;;4999328;28;92464;-72
2024/01/29 10:08:46;;;;;;;11.10;6.55;;;;;;;;;;5002938;28;92842;-72
2024/01/29 10:11:13;;;;;;;12.98;6.25;;;;;;;;;;5007226;28;93258;-72
2024/01/29 10:13:39;;;;;;;12.90;6.40;;;;;;;;;;5000935;28;92440;-72
2024/01/29 10:16:06;;;;;;;7.07;5.47;;;;;;;;;;4999639;28;93486;-72
2024/01/29 10:18:32;;;;;;;12.18;6.18;;;;;;;;;;4994148;28;93470;-77
2024/01/29 10:21:03;;;;;;;9.32;5.60;;;;;;;;;;5002900;28;91959;-77
2024/01/29 10:23:30;;;;;;;7.70;5.85;;;;;;;;;;5002900;28;92602;-77
2024/01/29 10:25:57;;;;;;;7.20;5.72;;;;;;;;;;4998527;28;95249;-77
2024/01/29 10:28:26;;;;;;;8.55;5.40;;;;;;;;;;4996573;28;94869;-77
2024/01/29 10:30:54;;;;;;;9.25;5.93;;;;;;;;;;5006651;28;95770;-77
2024/01/29 10:33:21;;;;;;;9.07;5.85;;;;;;;;;;5008156;28;93398;-77
2024/01/29 10:35:49;;;;;;;13.82;6.00;;;;;;;;;;5004163;28;92321;-77
2024/01/29 10:38:20;;;;;;;8.95;6.38;;;;;;;;;;5002715;28;93392;-77
2024/01/29 10:40:47;;;;;;;9.70;6.60;;;;;;;;;;5001343;28;92569;-77
2024/01/29 10:43:18;;;;;;;9.55;6.55;;;;;;;;;;5004260;28;93930;-77
2024/01/29 10:45:53;;;;;;;9.80;6.63;;;;;;;;;;5001718;28;94388;-77
2024/01/29 10:48:21;;;;;;;15.93;6.82;;;;;;;;;;5002907;28;92607;-77
2024/01/29 10:50:48;;;;;;;9.70;6.22;;;;;;;;;;5002054;28;93451;-77
2024/01/29 10:53:17;;;;;;;9.35;6.40;;;;;;;;;;5003664;28;96157;-77
2024/01/29 10:55:46;;;;;;;8.63;6.43;;;;;;;;;;5004349;28;92459;-77
2024/01/29 10:58:13;;;;;;;14.80;7.22;;;;;;;;;;5002893;28;95447;-78
2024/01/29 11:00:41;;;;;;;10.25;7.00;;;;;;;;;;5002033;28;92879;-77
2024/01/29 11:03:09;;;;;;;11.07;6.65;;;;;;;;;;5004827;28;93220;-77
2024/01/29 11:05:37;;;;;;;9.52;6.78;;;;;;;;;;5004511;28;93840;-77
2024/01/29 11:08:05;;;;;;;18.67;6.85;;;;;;;;;;5003832;28;92490;-77
2024/01/29 11:10:33;;;;;;;11.48;6.38;;;;;;;;;;5004687;28;93271;-77
2024/01/29 11:13:00;;;;;;;13.25;7.53;;;;;;;;;;5000677;28;92392;-77
2024/01/29 11:15:30;;;;;;;14.27;6.97;;;;;;;;;;5007117;28;92460;-77
2024/01/29 11:17:57;;;;;;;18.57;6.67;;;;;;;;;;5000607;28;95108;-77
2024/01/29 11:20:23;;;;;;;10.25;6.55;;;;;;;;;;5005981;28;92506;-77
2024/01/29 11:22:51;;;;;;;15.15;6.55;;;;;;;;;;5006197;28;93113;-77
2024/01/29 11:25:18;;;;;;;8.88;6.57;;;;;;;;;;5001234;28;93483;-77
2024/01/29 11:27:48;;;;;;;13.30;6.35;;;;;;;;;;5004952;28;92545;-77
2024/01/29 11:30:15;;;;;;;;;;;;;;;;;;5001201;28;93075;-77
2024/01/29 11:32:41;;;;;;;10.50;6.20;;;;;;;;;;5004632;28;122651;-77
2024/01/29 11:35:16;;;;;;;9.65;6.35;;;;;;;;;;5003157;28;91776;-78
2024/01/29 11:37:54;;;;;;;11.20;7.13;;;;;;;;;;5002977;28;92594;-78
2024/01/29 11:40:34;;;;;;;12.15;7.05;;;;;;;;;;5007842;28;93976;-78
2024/01/29 11:43:02;;;;;;;9.73;6.80;;;;;;;;;;4998183;28;94986;-78
2024/01/29 11:45:31;;;;;;;9.38;6.70;;;;;;;;;;5002147;28;94265;-78
2024/01/29 11:48:01;;;;;;;10.10;6.78;;;;;;;;;;4998611;28;92453;-78
2024/01/29 11:50:28;;;;;;;11.18;6.53;;;;;;;;;;5001295;28;94241;-78
2024/01/29 11:52:54;;;;;;;10.82;6.95;;;;;;;;;;5000963;28;93367;-75
2024/01/29 11:55:31;;;;;;;122.30;12.50;;;;;;;;;;5002231;28;92550;-78
2024/01/29 11:57:57;;;;;;;10.50;6.15;;;;;;;;;;5001382;28;94748;-78
2024/01/29 12:00:24;;;;;;;9.13;6.88;;;;;;;;;;5002406;28;92743;-78
2024/01/29 12:02:51;;;;;;;10.70;6.05;;;;;;;;;;5008512;28;92592;-78
2024/01/29 12:05:18;;;;;;;13.10;6.72;;;;;;;;;;5002760;28;93567;-78
2024/01/29 12:07:46;;;;;;;11.77;6.68;;;;;;;;;;4999904;28;94952;-78
2024/01/29 12:10:12;;;;;;;9.10;6.60;;;;;;;;;;5001952;28;96144;-76
2024/01/29 12:12:39;;;;;;;9.50;6.72;;;;;;;;;;4999417;28;93480;-76
2024/01/29 12:15:08;;;;;;;12.50;7.10;;;;;;;;;;5003285;28;92941;-76
2024/01/29 12:17:37;;;;;;;11.02;6.65;;;;;;;;;;5001444;28;96427;-75
2024/01/29 12:20:05;;;;;;;13.57;7.22;;;;;;;;;;5001925;28;93797;-76
2024/01/29 12:22:31;;;;;;;11.95;7.13;;;;;;;;;;5008144;28;92903;-76
2024/01/29 12:24:59;;;;;;;11.50;6.55;;;;;;;;;;5000516;28;93084;-75
2024/01/29 12:27:25;;;;;;;10.07;6.85;;;;;;;;;;5000444;28;92961;-76
2024/01/29 12:29:53;;;;;;;14.07;6.90;;;;;;;;;;5005287;28;93172;-79
2024/01/29 12:32:20;;;;;;;15.82;7.32;;;;;;;;;;4996506;28;95809;-76
2024/01/29 12:34:47;;;;;;;11.00;6.95;;;;;;;;;;5002020;28;92528;-76
2024/01/29 12:37:18;;;;;;;12.95;6.53;;;;;;;;;;5002029;28;93146;-79
2024/01/29 12:39:55;;;;;;;9.57;6.97;;;;;;;;;;4998927;28;94320;-71
2024/01/29 12:42:22;;;;;;;11.70;6.68;;;;;;;;;;5004611;28;92453;-71
2024/01/29 12:44:50;;;;;;;16.02;7.05;;;;;;;;;;5007900;28;93182;-72
2024/01/29 12:47:17;;;;;;;10.27;7.10;;;;;;;;;;4995018;28;95456;-73
2024/01/29 12:49:45;;;;;;;12.05;7.53;;;;;;;;;;5002212;28;93579;-72
2024/01/29 12:52:11;;;;;;;12.05;6.97;;;;;;;;;;5002498;28;94087;-72
2024/01/29 12:54:37;;;;;;;12.43;7.38;;;;;;;;;;5002187;28;92601;-73
2024/01/29 12:57:05;;;;;;;10.52;7.32;;;;;;;;;;5000079;28;94935;-73
2024/01/29 12:59:32;;;;;;;12.10;7.60;;;;;;;;;;5000727;28;93705;-73
2024/01/29 13:01:59;;;;;;;12.57;7.40;;;;;;;;;;5000850;28;92388;-72
2024/01/29 13:04:25;;;;;;;11.77;7.45;;;;;;;;;;5000955;28;93136;-72
2024/01/29 13:06:52;;;;;;;13.32;7.13;;;;;;;;;;5002104;28;97227;-72
2024/01/29 13:09:19;;;;;;;13.88;7.63;;;;;;;;;;5001117;28;93754;-72
2024/01/29 13:11:46;;;;;;;13.80;7.82;;;;;;;;;;4999050;28;93315;-72
2024/01/29 13:14:12;;;;;;;17.08;8.13;;;;;;;;;;5001733;28;92161;-72
2024/01/29 13:16:39;;;;;;;13.93;8.40;;;;;;;;;;5000537;28;92553;-72
2024/01/29 13:19:05;;;;;;;11.68;7.82;;;;;;;;;;5003479;28;94074;-72
2024/01/29 13:21:33;;;;;;;16.98;8.27;;;;;;;;;;4997492;28;94831;-73
2024/01/29 13:24:01;;;;;;;11.40;8.35;;;;;;;;;;4999299;28;95783;-71
2024/01/29 13:26:29;;;;;;;11.40;7.53;;;;;;;;;;5003456;28;93364;-72
2024/01/29 13:28:55;;;;;;;16.52;8.50;;;;;;;;;;5002866;28;92597;-72
2024/01/29 13:31:22;;;;;;;13.38;8.40;;;;;;;;;;5003317;28;93635;-72
2024/01/29 13:33:49;;;;;;;16.88;8.95;;;;;;;;;;5002969;28;92450;-72
2024/01/29 13:36:16;;;;;;;14.60;8.18;;;;;;;;;;5002624;28;93391;-72
2024/01/29 13:38:45;;;;;;;12.40;8.43;;;;;;;;;;5002762;28;93168;-72
2024/01/29 13:41:12;;;;;;;19.17;8.43;;;;;;;;;;5001268;28;92661;-72
2024/01/29 13:43:38;;;;;;;15.77;8.38;;;;;;;;;;4997343;28;93192;-72
2024/01/29 13:46:04;;;;;;;12.48;7.97;;;;;;;;;;5001972;28;95819;-73
2024/01/29 13:48:31;;;;;;;15.18;8.05;;;;;;;;;;5000638;28;92515;-72
2024/01/29 13:50:57;;;;;;;12.60;7.93;;;;;;;;;;5006602;28;93211;-71
2024/01/29 13:53:24;;;;;;;13.73;7.93;;;;;;;;;;5003498;28;92442;-72
2024/01/29 13:55:50;;;;;;;11.35;8.10;;;;;;;;;;4996926;28;93763;-72
2024/01/29 13:58:17;;;;;;;14.98;8.25;;;;;;;;;;4994471;28;93495;-71
2024/01/29 14:00:43;;;;;;;13.50;8.18;;;;;;;;;;4999494;28;93317;-74
2024/01/29 14:03:10;;;;;;;12.88;8.02;;;;;;;;;;5002131;28;93416;-74
2024/01/29 14:05:36;;;;;;;16.48;8.07;;;;;;;;;;5001152;28;93440;-74
2024/01/29 14:08:03;;;;;;;24.02;8.88;;;;;;;;;;4997604;28;92854;-73
2024/01/29 14:10:35;;;;;;;13.32;8.25;;;;;;;;;;5000123;28;95068;-73
2024/01/29 14:13:05;;;;;;;17.33;9.05;;;;;;;;;;4998557;28;93533;-74
2024/01/29 14:15:31;;;;;;;14.97;10.27;;;;;;;;;;5005092;28;93127;-77
2024/01/29 14:17:58;;;;;;;13.52;8.82;;;;;;;;;;5003166;28;93845;-74
2024/01/29 14:20:25;;;;;;;18.45;8.85;;;;;;;;;;5000923;28;92521;-74
2024/01/29 14:22:56;;;;;;;12.45;9.10;;;;;;;;;;5003588;28;93095;-75
2024/01/29 14:25:23;;;;;;;11.73;8.73;;;;;;;;;;5005079;28;93366;-74
2024/01/29 14:27:50;;;;;;;12.52;8.60;;;;;;;;;;5003873;28;91702;-73
2024/01/29 14:30:17;;;;;;;15.13;9.02;;;;;;;;;;5000290;28;92678;-73
2024/01/29 14:32:44;;;;;;;12.82;9.10;;;;;;;;;;5002990;28;95846;-74